Time;durP1;ratioP1;P1;durP2;ratioP2;P2;SDS_P1;SDS_P2;PMS_P1;PMS_P2;Temp;Humidity;BMP_temperature;BMP_pressure;BME280_temperature;BME280_humidity;BME280_pressure;Samples;Min_cycle;Max_cycle;Signal;HPM_P1;HPM_P2
2021/12/03 00:01:13;;;;;;;7.35;2.90;;;;;;;2.00;100.00;97101.41;5153732;27;20050;-51
2021/12/03 00:03:40;;;;;;;5.72;2.55;;;;;;;1.96;100.00;97109.44;5153620;27;20047;-52
2021/12/03 00:06:06;;;;;;;5.55;2.53;;;;;;;1.97;100.00;97113.72;5153770;27;20496;-51
2021/12/03 00:08:33;;;;;;;6.45;3.00;;;;;;;1.97;100.00;97118.34;5153908;27;20095;-54
2021/12/03 00:11:01;;;;;;;6.53;2.97;;;;;;;1.98;100.00;97142.31;5153633;27;20050;-52
2021/12/03 00:13:31;;;;;;;4.32;2.63;;;;;;;2.02;100.00;97172.88;5153589;27;20057;-51
2021/12/03 00:15:58;;;;;;;10.13;3.00;;;;;;;2.03;100.00;97173.66;5153549;27;20533;-50
2021/12/03 00:18:26;;;;;;;5.80;2.60;;;;;;;1.99;100.00;97181.69;5153750;27;20061;-51
2021/12/03 00:20:54;;;;;;;6.28;2.60;;;;;;;2.02;100.00;97207.22;5153520;27;20075;-50
2021/12/03 00:23:22;;;;;;;5.50;3.03;;;;;;;2.08;100.00;97216.63;5153079;27;20129;-51
2021/12/03 00:25:48;;;;;;;5.63;2.47;;;;;;;2.06;100.00;97175.66;5153801;27;20046;-50
2021/12/03 00:28:15;;;;;;;3.85;2.92;;;;;;;2.02;100.00;97180.97;5153257;27;20051;-52
2021/12/03 00:30:41;;;;;;;10.70;3.40;;;;;;;2.03;100.00;97152.84;5153723;27;20046;-52
2021/12/03 00:33:08;;;;;;;6.18;2.30;;;;;;;2.01;100.00;97101.06;5153897;27;20058;-51
2021/12/03 00:35:35;;;;;;;7.47;2.70;;;;;;;2.03;100.00;97087.16;5153419;27;20053;-51
2021/12/03 00:38:02;;;;;;;5.55;2.85;;;;;;;2.01;100.00;97054.34;5153251;27;20054;-51
2021/12/03 00:40:31;;;;;;;7.50;3.13;;;;;;;2.01;100.00;97071.31;5153375;27;20162;-51
2021/12/03 00:42:58;;;;;;;5.03;2.95;;;;;;;2.04;100.00;97111.16;5152355;27;20046;-52
2021/12/03 00:45:25;;;;;;;8.80;3.40;;;;;;;2.04;100.00;97103.03;5153196;27;20519;-53
2021/12/03 00:47:51;;;;;;;11.90;3.13;;;;;;;2.01;100.00;97102.97;5152967;27;20061;-51
2021/12/03 00:50:22;;;;;;;5.35;2.45;;;;;;;1.98;100.00;97090.97;5153126;27;20410;-52
2021/12/03 00:52:51;;;;;;;10.50;3.20;;;;;;;2.04;100.00;97142.81;5153370;27;20494;-51
2021/12/03 00:55:18;;;;;;;9.48;3.88;;;;;;;2.09;100.00;97186.53;5152992;27;20523;-50
2021/12/03 00:57:44;;;;;;;8.57;3.30;;;;;;;2.00;100.00;97174.38;5153155;27;20106;-51
2021/12/03 01:00:13;;;;;;;8.55;3.25;;;;;;;1.99;100.00;97157.38;5152970;27;20480;-51
2021/12/03 01:02:40;;;;;;;8.05;2.78;;;;;;;1.99;100.00;97140.38;5153114;27;20054;-50
2021/12/03 01:05:07;;;;;;;7.15;2.85;;;;;;;2.01;100.00;97178.66;5153263;27;20452;-51
2021/12/03 01:07:33;;;;;;;4.13;2.50;;;;;;;1.92;100.00;97132.13;5153071;27;20475;-53
2021/12/03 01:10:01;;;;;;;4.80;2.60;;;;;;;1.89;100.00;97126.31;5152802;27;20638;-55
2021/12/03 01:12:27;;;;;;;5.22;2.55;;;;;;;1.91;100.00;97152.97;5152926;27;20417;-55
2021/12/03 01:14:54;;;;;;;7.20;3.33;;;;;;;1.88;100.00;97167.19;5152974;27;20179;-55
2021/12/03 01:17:20;;;;;;;13.52;4.53;;;;;;;1.95;100.00;97220.59;5152709;27;20069;-54
2021/12/03 01:19:47;;;;;;;7.45;2.60;;;;;;;1.88;100.00;97172.59;5152931;27;20103;-51
2021/12/03 01:22:13;;;;;;;4.13;2.30;;;;;;;1.91;100.00;97190.03;5152468;27;20050;-53
2021/12/03 01:24:39;;;;;;;7.90;3.08;;;;;;;1.93;100.00;97182.34;5152248;27;20049;-53
2021/12/03 01:27:06;;;;;;;6.20;2.78;;;;;;;1.88;100.00;97161.78;5152439;27;20046;-51
2021/12/03 01:29:33;;;;;;;8.02;3.47;;;;;;;1.86;100.00;97181.06;5152662;27;20135;-54
2021/12/03 01:31:59;;;;;;;6.38;3.05;;;;;;;1.85;100.00;97193.00;5152197;27;20178;-52
2021/12/03 01:34:26;;;;;;;4.40;3.00;;;;;;;1.92;100.00;97197.00;5152232;27;20056;-55
2021/12/03 01:36:52;;;;;;;2.95;2.60;;;;;;;1.88;100.00;97219.31;5152495;27;20054;-53
2021/12/03 01:39:18;;;;;;;4.75;2.85;;;;;;;1.84;100.00;97201.47;5152117;27;20042;-51
2021/12/03 01:41:45;;;;;;;4.60;2.30;;;;;;;1.81;100.00;97167.84;5152230;27;20054;-53
2021/12/03 01:44:12;;;;;;;16.25;6.03;;;;;;;1.87;100.00;97179.94;5152077;27;20566;-51
2021/12/03 01:46:38;;;;;;;3.72;2.63;;;;;;;1.90;100.00;97200.06;5152453;27;20088;-52
2021/12/03 01:49:05;;;;;;;6.50;2.80;;;;;;;1.88;100.00;97205.81;5152525;27;20412;-54
2021/12/03 01:51:32;;;;;;;8.88;3.15;;;;;;;1.85;100.00;97160.59;5152319;27;20420;-52
2021/12/03 01:53:58;;;;;;;12.00;3.85;;;;;;;1.88;100.00;97175.31;5151793;27;20106;-54
2021/12/03 01:56:25;;;;;;;7.45;3.70;;;;;;;1.97;100.00;97212.94;5152293;27;20046;-51
2021/12/03 01:58:53;;;;;;;3.00;2.67;;;;;;;1.86;100.00;97228.91;5152226;27;20424;-51
2021/12/03 02:01:24;;;;;;;7.28;3.00;;;;;;;1.86;100.00;97231.63;5151930;27;20075;-52
2021/12/03 02:03:54;;;;;;;6.75;3.15;;;;;;;1.87;100.00;97244.00;5151938;27;20464;-51
2021/12/03 02:06:22;;;;;;;4.20;3.00;;;;;;;1.84;100.00;97252.81;5151948;27;20053;-50
2021/12/03 02:09:10;;;;;;;2.97;2.60;;;;;;;1.68;100.00;97212.34;5152345;27;20089;-51
2021/12/03 02:11:36;;;;;;;5.65;2.47;;;;;;;1.69;100.00;97210.41;5152397;27;20053;-50
2021/12/03 02:14:03;;;;;;;7.78;3.88;;;;;;;1.81;100.00;97240.00;5152143;27;20504;-52
2021/12/03 02:16:30;;;;;;;4.22;2.65;;;;;;;1.78;100.00;97229.91;5151896;27;20050;-50
2021/12/03 02:18:56;;;;;;;5.93;3.42;;;;;;;1.79;100.00;97224.13;5152216;27;20051;-51
2021/12/03 02:21:23;;;;;;;9.27;3.38;;;;;;;1.77;100.00;97256.16;5151611;27;20055;-51
2021/12/03 02:24:11;;;;;;;8.10;3.72;;;;;;;1.78;100.00;97256.94;5151331;27;20055;-51
2021/12/03 02:26:39;;;;;;;6.43;3.15;;;;;;;1.79;100.00;97261.19;5151528;27;20115;-51
2021/12/03 02:29:05;;;;;;;5.22;2.97;;;;;;;1.79;100.00;97272.00;5151580;27;20066;-51
2021/12/03 02:31:31;;;;;;;4.22;3.58;;;;;;;1.80;100.00;97274.34;5151584;27;20141;-52
2021/12/03 02:33:58;;;;;;;9.05;3.00;;;;;;;1.81;100.00;97272.44;5151469;27;20050;-50
2021/12/03 02:36:25;;;;;;;4.22;2.58;;;;;;;1.71;100.00;97260.25;5151418;27;20057;-50
2021/12/03 02:38:52;;;;;;;6.15;2.83;;;;;;;1.65;100.00;97243.53;5151480;27;20107;-51
2021/12/03 02:41:18;;;;;;;5.85;2.85;;;;;;;1.57;100.00;97276.16;5151335;27;20118;-50
2021/12/03 02:43:44;;;;;;;3.50;2.50;;;;;;;1.54;100.00;97293.06;5151262;27;20504;-50
2021/12/03 02:46:11;;;;;;;5.47;2.60;;;;;;;1.66;100.00;97328.03;5151427;27;20058;-52
2021/12/03 02:48:38;;;;;;;3.38;2.90;;;;;;;1.65;100.00;97334.59;5151215;27;20042;-54
2021/12/03 02:51:06;;;;;;;4.72;2.90;;;;;;;1.65;100.00;97331.91;5151185;27;20518;-52
2021/12/03 02:53:34;;;;;;;5.78;2.72;;;;;;;1.68;100.00;97355.50;5151290;27;20058;-51
2021/12/03 02:56:00;;;;;;;9.25;3.63;;;;;;;1.67;100.00;97355.84;5151084;27;20051;-52
2021/12/03 02:58:27;;;;;;;4.45;2.83;;;;;;;1.59;100.00;97361.06;5150972;27;20047;-51
2021/12/03 03:00:54;;;;;;;5.68;2.80;;;;;;;1.62;100.00;97367.72;5151096;27;20053;-50
2021/12/03 03:03:21;;;;;;;12.70;4.30;;;;;;;1.67;100.00;97391.75;5151248;27;20043;-55
2021/12/03 03:05:52;;;;;;;6.03;3.00;;;;;;;1.63;100.00;97397.09;5151014;27;20046;-52
2021/12/03 03:08:19;;;;;;;6.50;3.40;;;;;;;1.69;100.00;97384.06;5154785;27;20046;-50
2021/12/03 03:10:46;;;;;;;7.68;3.22;;;;;;;1.69;100.00;97396.81;5154776;27;20047;-56
2021/12/03 03:13:12;;;;;;;13.27;4.53;;;;;;;1.75;100.00;97392.72;5154764;27;20347;-51
2021/12/03 03:15:38;;;;;;;5.78;3.13;;;;;;;1.68;100.00;97403.34;5154955;27;20069;-54
2021/12/03 03:18:11;;;;;;;4.43;2.53;;;;;;;1.63;100.00;97407.88;5154551;27;20043;-51
2021/12/03 03:20:39;;;;;;;5.72;3.13;;;;;;;1.59;100.00;97390.78;5154745;27;20042;-54
2021/12/03 03:23:05;;;;;;;9.10;3.63;;;;;;;1.61;100.00;97417.47;5154426;27;20051;-52
2021/12/03 03:25:32;;;;;;;5.30;2.70;;;;;;;1.54;100.00;97415.38;5154237;27;20421;-51
2021/12/03 03:27:59;;;;;;;6.10;2.75;;;;;;;1.47;100.00;97393.59;5154336;27;20053;-52
2021/12/03 03:30:25;;;;;;;9.07;3.35;;;;;;;1.41;100.00;97411.19;5154374;27;20050;-52
2021/12/03 03:32:53;;;;;;;6.28;3.47;;;;;;;1.52;100.00;97449.25;5154145;27;20067;-54
2021/12/03 03:35:19;;;;;;;5.93;3.05;;;;;;;1.52;100.00;97439.22;5154304;27;20505;-50
2021/12/03 03:37:46;;;;;;;4.65;3.08;;;;;;;1.43;100.00;97433.19;5154136;27;20047;-53
2021/12/03 03:40:12;;;;;;;5.40;3.80;;;;;;;1.45;100.00;97441.75;5154079;27;20091;-55
2021/12/03 03:42:39;;;;;;;14.02;4.95;;;;;;;1.51;100.00;97445.78;5154223;27;20058;-51
2021/12/03 03:45:10;;;;;;;11.88;4.05;;;;;;;1.52;100.00;97473.56;5154086;27;20050;-50
2021/12/03 03:47:36;;;;;;;6.97;3.67;;;;;;;1.47;100.00;97476.53;5154276;27;20462;-51
2021/12/03 03:50:04;;;;;;;19.17;5.53;;;;;;;1.46;100.00;97475.72;5154041;27;20072;-50
2021/12/03 03:52:31;;;;;;;12.68;4.13;;;;;;;1.50;100.00;97492.00;5154009;27;20058;-50
2021/12/03 03:54:57;;;;;;;10.13;3.83;;;;;;;1.49;100.00;97496.63;5154035;27;20047;-52
2021/12/03 03:57:23;;;;;;;11.88;3.35;;;;;;;1.47;100.00;97496.22;5153858;27;20185;-51
2021/12/03 03:59:50;;;;;;;8.02;3.65;;;;;;;1.49;100.00;97510.13;5154088;27;20050;-52
2021/12/03 04:02:17;;;;;;;9.38;3.60;;;;;;;1.50;100.00;97511.72;5153852;27;20099;-50
2021/12/03 04:04:43;;;;;;;8.52;3.95;;;;;;;1.53;100.00;97524.50;5153690;27;20047;-50
2021/12/03 04:07:09;;;;;;;5.75;2.92;;;;;;;1.44;100.00;97510.41;5153674;27;20046;-53
2021/12/03 04:09:36;;;;;;;5.05;2.55;;;;;;;1.40;100.00;97513.00;5153935;27;20433;-51
2021/12/03 04:12:02;;;;;;;4.78;3.20;;;;;;;1.44;100.00;97528.53;5153763;27;20416;-52
2021/12/03 04:14:28;;;;;;;10.65;4.40;;;;;;;1.40;100.00;97521.09;5153951;27;20043;-50
2021/12/03 04:16:55;;;;;;;7.95;3.20;;;;;;;1.44;100.00;97547.44;5153897;27;20050;-50
2021/12/03 04:19:21;;;;;;;4.28;2.92;;;;;;;1.44;100.00;97544.72;5152629;27;20055;-54
2021/12/03 04:21:48;;;;;;;11.23;3.13;;;;;;;1.40;100.00;97534.59;5153761;27;20051;-53
2021/12/03 04:24:14;;;;;;;6.88;3.08;;;;;;;1.42;100.00;97553.16;5153341;27;20046;-51
2021/12/03 04:26:41;;;;;;;5.05;3.05;;;;;;;1.45;100.00;97549.00;5153494;27;20527;-50
2021/12/03 04:29:07;;;;;;;7.95;3.42;;;;;;;1.48;100.00;97559.88;5153535;27;20073;-51
2021/12/03 04:31:34;;;;;;;6.25;3.20;;;;;;;1.49;100.00;97580.34;5153350;27;20465;-51
2021/12/03 04:34:00;;;;;;;4.60;2.95;;;;;;;1.50;100.00;97579.25;5153191;27;20043;-51
2021/12/03 04:36:27;;;;;;;8.55;3.55;;;;;;;1.49;100.00;97577.66;5153864;27;20073;-54
2021/12/03 04:38:53;;;;;;;3.33;2.85;;;;;;;1.50;100.00;97581.13;5153327;27;20420;-52
2021/12/03 04:41:19;;;;;;;5.50;3.35;;;;;;;1.40;100.00;97599.41;5153265;27;20508;-51
2021/12/03 04:43:45;;;;;;;11.43;4.00;;;;;;;1.44;100.00;97591.41;5153045;27;20046;-53
2021/12/03 04:46:12;;;;;;;3.33;2.88;;;;;;;1.44;100.00;97604.91;5153425;27;20074;-54
2021/12/03 04:48:38;;;;;;;6.47;3.38;;;;;;;1.42;100.00;97602.53;5153127;27;20046;-51
2021/12/03 04:51:04;;;;;;;7.65;4.30;;;;;;;1.47;100.00;97603.44;5153254;27;20053;-53
2021/12/03 04:53:31;;;;;;;8.13;4.38;;;;;;;1.47;100.00;97608.84;5153179;27;20541;-51
2021/12/03 04:55:57;;;;;;;7.07;4.22;;;;;;;1.51;100.00;97624.03;5152740;27;20134;-50
2021/12/03 04:58:24;;;;;;;8.63;3.78;;;;;;;1.52;100.00;97608.59;5152727;27;20047;-51
2021/12/03 05:00:53;;;;;;;8.88;3.75;;;;;;;1.49;100.00;97606.56;5152690;27;20050;-52
2021/12/03 05:03:23;;;;;;;16.85;4.90;;;;;;;1.52;100.00;97617.47;5152666;27;20523;-50
2021/12/03 05:05:53;;;;;;;15.88;6.35;;;;;;;1.51;100.00;97621.31;5152639;27;20541;-52
2021/12/03 05:08:19;;;;;;;12.75;4.25;;;;;;;1.53;100.00;97626.38;5152749;27;20076;-54
2021/12/03 05:10:46;;;;;;;14.23;5.03;;;;;;;1.52;100.00;97643.69;5152603;27;20397;-52
2021/12/03 05:13:15;;;;;;;8.85;4.57;;;;;;;1.54;100.00;97639.53;5152477;27;20058;-53
2021/12/03 05:15:42;;;;;;;12.77;4.43;;;;;;;1.53;100.00;97646.06;5152306;27;20047;-53
2021/12/03 05:18:09;;;;;;;7.72;3.97;;;;;;;1.49;100.00;97652.50;5152997;27;20501;-53
2021/12/03 05:20:36;;;;;;;10.20;4.25;;;;;;;1.45;100.00;97657.78;5151899;27;20092;-50
2021/12/03 05:23:02;;;;;;;7.50;3.72;;;;;;;1.49;100.00;97664.06;5152393;27;20050;-51
2021/12/03 05:25:29;;;;;;;6.60;3.38;;;;;;;1.42;100.00;97653.84;5151742;27;20470;-50
2021/12/03 05:27:56;;;;;;;9.23;4.20;;;;;;;1.49;100.00;97663.28;5151862;27;20047;-53
2021/12/03 05:30:23;;;;;;;9.63;4.10;;;;;;;1.45;100.00;97663.19;5150882;27;20053;-54
2021/12/03 05:32:49;;;;;;;7.60;3.88;;;;;;;1.46;100.00;97655.88;5151429;27;20047;-52
2021/12/03 05:35:17;;;;;;;10.85;4.30;;;;;;;1.44;100.00;97652.75;5151796;27;20065;-50
2021/12/03 05:37:43;;;;;;;8.85;3.92;;;;;;;1.38;100.00;97654.88;5151960;27;20137;-52
2021/12/03 05:40:11;;;;;;;12.77;4.40;;;;;;;1.36;100.00;97655.22;5151575;27;20046;-50
2021/12/03 05:42:38;;;;;;;13.52;4.80;;;;;;;1.35;100.00;97660.97;5151685;27;20046;-50
2021/12/03 05:45:07;;;;;;;10.98;4.32;;;;;;;1.44;100.00;97682.44;5151801;27;20047;-50
2021/12/03 05:47:34;;;;;;;12.65;4.82;;;;;;;1.44;100.00;97674.34;5152130;27;20438;-51
2021/12/03 05:50:00;;;;;;;11.27;4.50;;;;;;;1.46;100.00;97677.47;5151875;27;20468;-52
2021/12/03 05:52:27;;;;;;;9.25;3.50;;;;;;;1.56;100.00;97677.00;5151805;27;20047;-53
2021/12/03 05:54:53;;;;;;;12.70;4.93;;;;;;;1.55;100.00;97668.13;5151789;27;20042;-53
2021/12/03 05:57:19;;;;;;;5.95;3.70;;;;;;;1.58;100.00;97653.16;5151634;27;20573;-50
2021/12/03 05:59:45;;;;;;;6.78;3.33;;;;;;;1.63;100.00;97644.78;5151465;27;20047;-54
2021/12/03 06:02:12;;;;;;;19.60;5.10;;;;;;;1.62;100.00;97624.31;5151123;27;20057;-54
2021/12/03 06:04:38;;;;;;;7.65;3.50;;;;;;;1.69;100.00;97616.41;5151557;27;20532;-51
2021/12/03 06:07:05;;;;;;;7.68;4.57;;;;;;;1.70;100.00;97614.47;5145012;27;20059;-51
2021/12/03 06:09:32;;;;;;;9.85;4.57;;;;;;;1.69;100.00;97619.09;5130549;27;20057;-53
2021/12/03 06:11:59;;;;;;;3.40;2.75;;;;;;;1.60;100.00;97594.97;5130698;27;20051;-50
2021/12/03 06:14:27;;;;;;;11.70;3.70;;;;;;;1.52;100.00;97563.47;5138748;27;20056;-50
2021/12/03 06:16:53;;;;;;;9.88;4.40;;;;;;;1.49;100.00;97556.03;5151394;27;20047;-51
2021/12/03 06:19:20;;;;;;;8.70;3.70;;;;;;;1.45;100.00;97549.78;5151895;27;20054;-51
2021/12/03 06:21:47;;;;;;;13.77;4.68;;;;;;;1.45;100.00;97576.78;5151414;27;20054;-51
2021/12/03 06:24:13;;;;;;;10.48;4.43;;;;;;;1.51;100.00;97598.94;5150926;27;20053;-51
2021/12/03 06:26:39;;;;;;;9.02;4.20;;;;;;;1.49;100.00;97588.44;5150897;27;20050;-51
2021/12/03 06:29:05;;;;;;;9.80;4.72;;;;;;;1.52;100.00;97597.78;5151380;27;20047;-54
2021/12/03 06:31:33;;;;;;;9.77;4.47;;;;;;;1.60;100.00;97597.66;5150852;27;20497;-52
2021/12/03 06:33:59;;;;;;;14.32;5.47;;;;;;;1.72;100.00;97586.00;5150969;27;20138;-53
2021/12/03 06:36:26;;;;;;;9.50;3.88;;;;;;;1.74;100.00;97581.03;5149617;27;20051;-53
2021/12/03 06:38:53;;;;;;;10.00;4.55;;;;;;;1.79;100.00;97563.78;5142482;27;20508;-52
2021/12/03 06:41:19;;;;;;;8.68;4.72;;;;;;;1.76;100.00;97542.88;5149942;27;20051;-55
2021/12/03 06:43:45;;;;;;;8.45;4.10;;;;;;;1.77;100.00;97520.13;5150955;27;20071;-52
2021/12/03 06:46:12;;;;;;;11.48;4.70;;;;;;;1.73;100.00;97503.81;5151198;27;20055;-54
2021/12/03 06:48:38;;;;;;;11.10;4.80;;;;;;;1.73;100.00;97519.25;5150616;27;21345;-56
2021/12/03 06:51:04;;;;;;;10.25;4.18;;;;;;;1.79;100.00;97513.22;5150995;27;20043;-53
2021/12/03 06:53:40;;;;;;;10.43;3.63;;;;;;;1.79;100.00;97497.03;5150897;27;20062;-52
2021/12/03 06:56:09;;;;;;;7.10;4.32;;;;;;;1.76;100.00;97440.97;5150630;27;20047;-52
2021/12/03 06:58:35;;;;;;;9.32;4.10;;;;;;;1.71;100.00;97440.47;5151079;27;20097;-51
2021/12/03 07:01:02;;;;;;;7.03;3.30;;;;;;;1.69;100.00;97423.81;5150529;27;20051;-54
2021/12/03 07:03:29;;;;;;;7.70;3.58;;;;;;;1.68;100.00;97438.47;5150927;27;20047;-53
2021/12/03 07:05:55;;;;;;;5.45;2.95;;;;;;;1.60;100.00;97427.50;5150483;27;20417;-52
2021/12/03 07:08:21;;;;;;;5.25;3.03;;;;;;;1.61;100.00;97415.53;5150708;27;20068;-54
2021/12/03 07:10:48;;;;;;;5.88;3.08;;;;;;;1.60;100.00;97430.19;5130143;28;20429;-53
2021/12/03 07:13:14;;;;;;;8.57;4.35;;;;;;;1.65;100.00;97442.66;5129961;28;20047;-55
2021/12/03 07:15:41;;;;;;;9.85;4.43;;;;;;;1.60;100.00;97441.00;5129909;28;20047;-55
2021/12/03 07:18:07;;;;;;;4.28;2.60;;;;;;;1.58;100.00;97420.84;5129977;28;20051;-55
2021/12/03 07:20:33;;;;;;;7.05;3.10;;;;;;;1.56;100.00;97417.72;5147892;27;20465;-52
2021/12/03 07:23:00;;;;;;;8.90;3.67;;;;;;;1.62;100.00;97422.50;5150192;27;20091;-51
2021/12/03 07:25:26;;;;;;;4.45;2.25;;;;;;;1.60;100.00;97446.41;5150182;27;20477;-54
2021/12/03 07:27:53;;;;;;;7.50;3.50;;;;;;;1.60;100.00;97470.72;5150429;27;20473;-52
2021/12/03 07:30:20;;;;;;;21.48;5.25;;;;;;;1.67;100.00;97455.78;5150319;27;20051;-54
2021/12/03 07:32:47;;;;;;;13.32;3.95;;;;;;;1.64;100.00;97414.84;5150129;27;20178;-53
2021/12/03 07:35:14;;;;;;;7.53;3.47;;;;;;;1.52;100.00;97387.13;5150524;27;20050;-53
2021/12/03 07:37:43;;;;;;;14.02;4.47;;;;;;;1.55;100.00;97405.34;5150147;27;20051;-54
2021/12/03 07:40:11;;;;;;;9.05;2.72;;;;;;;1.65;100.00;97427.22;5150329;27;20047;-55
2021/12/03 07:42:37;;;;;;;14.68;3.63;;;;;;;1.64;100.00;97378.94;5150347;27;20501;-52
2021/12/03 07:45:08;;;;;;;4.90;2.60;;;;;;;1.72;100.00;97355.59;5141962;27;20050;-54
2021/12/03 07:47:34;;;;;;;9.35;3.38;;;;;;;1.65;100.00;97369.72;5141158;27;20118;-53
2021/12/03 07:50:00;;;;;;;5.43;2.70;;;;;;;1.70;100.00;97382.16;5130816;27;20413;-55
2021/12/03 07:52:27;;;;;;;12.32;3.75;;;;;;;1.67;100.00;97372.03;5130258;27;20051;-51
2021/12/03 07:54:53;;;;;;;2.60;2.30;;;;;;;1.69;100.00;97392.19;5132987;28;20138;-54
2021/12/03 07:57:19;;;;;;;4.68;2.40;;;;;;;1.71;100.00;97411.53;5146784;27;20066;-55
2021/12/03 07:59:45;;;;;;;8.32;2.95;;;;;;;1.72;100.00;97377.19;5153457;27;20425;-52
2021/12/03 08:02:12;;;;;;;5.57;3.00;;;;;;;1.82;100.00;97390.19;5153685;27;20071;-56
2021/12/03 08:04:39;;;;;;;14.18;3.80;;;;;;;1.76;100.00;97348.34;5153334;27;20098;-53
2021/12/03 08:07:05;;;;;;;3.78;2.15;;;;;;;1.76;100.00;97330.22;5153522;27;20057;-52
2021/12/03 08:09:31;;;;;;;8.43;2.67;;;;;;;1.79;100.00;97356.53;5153544;27;20050;-56
2021/12/03 08:11:58;;;;;;;18.75;6.15;;;;;;;1.86;100.00;97323.47;5153533;27;20138;-51
2021/12/03 08:14:24;;;;;;;3.88;2.65;;;;;;;1.85;100.00;97322.69;5153302;27;20047;-55
2021/12/03 08:16:50;;;;;;;5.57;2.60;;;;;;;1.79;100.00;97310.59;5153069;27;20050;-56
2021/12/03 08:19:17;;;;;;;13.73;4.55;;;;;;;1.86;100.00;97328.88;5153565;27;20050;-55
2021/12/03 08:21:43;;;;;;;10.68;3.60;;;;;;;1.99;100.00;97368.19;5153491;27;20055;-52
2021/12/03 08:24:10;;;;;;;10.18;3.05;;;;;;;1.98;100.00;97345.00;5153041;27;20059;-56
2021/12/03 08:26:36;;;;;;;3.35;2.50;;;;;;;2.05;100.00;97337.03;5153046;27;20053;-55
2021/12/03 08:29:04;;;;;;;6.90;3.83;;;;;;;2.12;100.00;97331.00;5153542;27;20520;-55
2021/12/03 08:31:31;;;;;;;6.50;2.83;;;;;;;2.11;100.00;97322.13;5152832;27;20047;-54
2021/12/03 08:33:57;;;;;;;4.70;2.47;;;;;;;2.23;100.00;97331.22;5153708;27;20077;-51
2021/12/03 08:36:24;;;;;;;9.60;3.22;;;;;;;2.32;100.00;97318.28;5152950;27;20470;-52
2021/12/03 08:38:50;;;;;;;4.28;3.03;;;;;;;2.26;100.00;97296.16;5153321;27;20042;-56
2021/12/03 08:41:17;;;;;;;7.40;3.55;;;;;;;2.30;100.00;97296.22;5152955;27;20046;-53
2021/12/03 08:43:44;;;;;;;4.40;2.60;;;;;;;2.37;100.00;97288.28;5153154;27;20054;-53
2021/12/03 08:46:14;;;;;;;7.85;3.00;;;;;;;2.72;100.00;97373.97;5152863;27;20049;-60
2021/12/03 08:48:43;;;;;;;3.90;2.33;;;;;;;2.69;100.00;97253.69;5152602;27;20089;-60
2021/12/03 08:51:25;;;;;;;8.55;3.40;;;;;;;2.66;100.00;97210.34;5153006;27;20054;-59
2021/12/03 08:56:37;;;;;;;6.30;2.97;;;;;;;2.62;100.00;97145.34;5153249;27;20045;-59
2021/12/03 08:59:04;;;;;;;13.90;4.70;;;;;;;2.76;100.00;97174.56;5152711;27;20051;-59
2021/12/03 09:01:30;;;;;;;4.68;2.65;;;;;;;2.80;100.00;97151.06;5152743;27;20145;-57
2021/12/03 09:03:57;;;;;;;9.75;2.58;;;;;;;2.93;100.00;97141.59;5151907;27;20053;-60
2021/12/03 09:06:23;;;;;;;12.00;4.45;;;;;;;2.93;100.00;97103.72;5152714;27;20420;-60
2021/12/03 09:08:49;;;;;;;7.70;4.78;;;;;;;2.88;100.00;97060.72;5152779;27;20047;-60
2021/12/03 09:11:17;;;;;;;6.45;2.50;;;;;;;2.82;100.00;97024.28;5152589;27;20047;-60
2021/12/03 09:13:45;;;;;;;10.68;3.95;;;;;;;2.87;100.00;97015.09;5152620;27;20501;-60
2021/12/03 09:16:16;;;;;;;5.07;2.20;;;;;;;2.93;100.00;97056.91;5152373;27;20047;-60
2021/12/03 09:18:44;;;;;;;3.55;2.17;;;;;;;2.95;100.00;97003.19;5152523;27;20497;-59
2021/12/03 09:21:14;;;;;;;5.40;1.88;;;;;;;2.99;100.00;96993.97;5152308;27;20057;-60
2021/12/03 09:23:50;;;;;;;2.53;1.50;;;;;;;2.92;100.00;96982.28;5152637;27;20059;-60
2021/12/03 09:26:18;;;;;;;7.55;1.95;;;;;;;2.97;100.00;96966.50;5151661;27;20573;-60
2021/12/03 09:28:47;;;;;;;4.00;1.88;;;;;;;2.94;100.00;96942.88;5152542;27;20050;-60
2021/12/03 09:31:15;;;;;;;1.60;1.42;;;;;;;2.93;100.00;96876.38;5152291;27;20068;-60
2021/12/03 09:33:44;;;;;;;4.78;2.08;;;;;;;3.00;100.00;96864.81;5151882;27;20051;-60
2021/12/03 09:36:10;;;;;;;13.30;3.92;;;;;;;3.06;100.00;96876.88;5152150;27;20421;-58
2021/12/03 09:38:38;;;;;;;3.33;1.73;;;;;;;3.06;100.00;96891.19;5151775;27;20053;-60
2021/12/03 09:41:07;;;;;;;3.97;1.60;;;;;;;3.05;100.00;96845.53;5152139;27;20050;-60
2021/12/03 09:43:36;;;;;;;4.97;2.00;;;;;;;2.99;100.00;96818.03;5152121;27;20050;-60
2021/12/03 09:46:10;;;;;;;5.88;2.42;;;;;;;2.97;100.00;96860.94;5151948;27;20062;-60
2021/12/03 09:48:53;;;;;;;3.88;1.75;;;;;;;3.12;100.00;96866.50;5151984;27;20050;-60
2021/12/03 09:51:20;;;;;;;2.38;1.38;;;;;;;3.02;100.00;96822.69;5152123;27;20062;-60
2021/12/03 09:56:31;;;;;;;8.10;3.15;;;;;;;3.03;100.00;96796.41;5136467;27;20043;-60
2021/12/03 10:01:45;;;;;;;6.70;2.70;;;;;;;3.01;100.00;96799.50;5149013;27;20486;-60
2021/12/03 10:04:42;;;;;;;4.00;1.90;;;;;;;2.92;100.00;96784.72;5151942;27;20094;-60
2021/12/03 10:12:53;;;;;;;2.88;1.90;;;;;;;2.96;100.00;96777.41;5151664;27;20050;-61
2021/12/03 10:15:24;;;;;;;2.92;1.70;;;;;;;2.98;100.00;96770.47;5151093;27;20054;-60
2021/12/03 10:17:59;;;;;;;6.35;2.72;;;;;;;3.04;100.00;96757.38;5151682;27;20527;-60
2021/12/03 10:20:37;;;;;;;8.57;3.08;;;;;;;3.13;100.00;96757.81;5151221;27;20050;-60
2021/12/03 10:24:11;;;;;;;4.53;2.20;;;;;;;3.15;100.00;96730.38;5151308;27;20069;-60
2021/12/03 10:29:50;;;;;;;9.18;2.67;;;;;;;3.34;100.00;96772.69;5151010;27;20050;-59
2021/12/03 10:32:45;;;;;;;5.95;3.30;;;;;;;3.38;100.00;96790.53;5150939;27;20054;-60
2021/12/03 10:38:16;;;;;;;4.07;1.35;;;;;;;3.33;100.00;96719.69;5151264;27;20051;-60
2021/12/03 10:49:16;;;;;;;11.98;3.42;;;;;;;3.12;100.00;96750.84;5095563;28;20443;-60
2021/12/03 10:51:49;;;;;;;9.20;2.80;;;;;;;3.04;100.00;96771.69;5130547;28;20058;-60
2021/12/03 10:54:36;;;;;;;6.55;1.70;;;;;;;3.07;100.00;96756.63;5134530;27;20473;-58
2021/12/03 10:57:41;;;;;;;7.85;2.72;;;;;;;3.01;100.00;96768.94;5141418;27;20057;-60
2021/12/03 11:17:57;;;;;;;4.63;1.67;;;;;;;2.96;100.00;96790.94;5130287;28;20085;-60
2021/12/03 12:00:22;;;;;;;12.90;3.33;;;;;;;2.08;100.00;96895.75;5153573;27;20050;-50
2021/12/03 12:35:59;;;;;;;13.02;2.67;;;;;;;1.38;100.00;96863.81;5153672;27;20154;-53
2021/12/03 14:08:51;;;;;;;9.80;2.85;;;;;;;-0.53;100.00;97460.56;5131905;27;20133;-50
2021/12/03 14:40:34;;;;;;;8.50;3.33;;;;;;;-0.64;100.00;97823.53;5151298;27;20039;-50
2021/12/03 14:48:52;;;;;;;5.18;2.65;;;;;;;-0.67;100.00;97856.47;5113650;27;20050;-54
2021/12/03 14:51:39;;;;;;;5.30;2.40;;;;;;;-0.69;100.00;97863.28;5151075;27;20054;-51
2021/12/03 14:57:13;;;;;;;11.18;3.63;;;;;;;-0.75;100.00;97868.06;5151099;27;20124;-53
2021/12/03 14:59:51;;;;;;;18.95;4.93;;;;;;;-0.83;100.00;97877.75;5151458;27;20051;-51
2021/12/03 15:02:34;;;;;;;9.43;3.33;;;;;;;-0.85;100.00;97895.31;5151848;27;20565;-53
2021/12/03 15:05:15;;;;;;;11.30;3.17;;;;;;;-0.77;100.00;97906.06;5154588;27;20055;-54
2021/12/03 15:07:44;;;;;;;12.27;4.60;;;;;;;-0.83;100.00;97912.72;5154711;27;20043;-52
2021/12/03 15:10:16;;;;;;;15.07;5.53;;;;;;;-0.80;100.00;97913.97;5154688;27;20410;-53
2021/12/03 15:27:07;;;;;;;6.75;3.25;;;;;;;-0.79;100.00;97956.72;5146494;27;20528;-54
2021/12/03 15:32:28;;;;;;;5.50;2.17;;;;;;;-0.64;100.00;97947.31;5153090;27;20078;-52
2021/12/03 15:35:02;;;;;;;6.15;2.10;;;;;;;-0.63;100.00;97929.28;5154509;27;20046;-54
2021/12/03 16:04:52;;;;;;;;;;;;;;;-0.17;100.00;97915.00;5154434;27;20042;-49
2021/12/03 16:07:39;;;;;;;4.93;2.75;;;;;;;-0.10;100.00;97933.34;5153883;27;19927;-50
2021/12/03 16:10:17;;;;;;;14.90;4.45;;;;;;;-0.10;100.00;97939.56;5153828;27;20043;-50
2021/12/03 16:13:05;;;;;;;6.40;3.40;;;;;;;-0.10;100.00;97947.63;5153509;27;20086;-49
2021/12/03 16:15:57;;;;;;;7.72;2.72;;;;;;;-0.02;100.00;97965.66;5153714;27;20137;-50
2021/12/03 16:18:43;;;;;;;8.32;2.95;;;;;;;-0.09;100.00;97984.22;5153687;27;20046;-50
2021/12/03 16:46:25;;;;;;;11.93;4.68;;;;;;;-0.24;100.00;98114.81;5153381;27;20050;-50
2021/12/03 16:51:49;;;;;;;14.30;4.88;;;;;;;-0.20;100.00;98098.84;5153389;27;20532;-51
2021/12/03 16:54:24;;;;;;;10.90;4.07;;;;;;;-0.18;100.00;98106.59;5152629;27;20148;-52
2021/12/03 16:57:07;;;;;;;10.07;4.80;;;;;;;-0.20;100.00;98092.63;5134495;27;20047;-51
2021/12/03 16:59:38;;;;;;;11.27;5.00;;;;;;;-0.20;100.00;98095.34;5153173;27;20057;-53